Time,TemperatureF,DewpointF,PressureIn,WindDirection,WindDirectionDegrees,WindSpeedMPH,WindSpeedGustMPH,Humidity,HourlyPrecipIn,Conditions,Clouds,dailyrainin,SoftwareType,DateUTC
2013-06-03 00:15:00,54.8,48.0,30.00,NW,317,4.0,6.0,78,0.00,,,0.00,weatherlink.com 1.10,2013-06-03 04:15:00,
2013-06-03 00:30:00,54.5,47.0,30.00,NW,315,3.0,7.0,77,0.00,,,0.00,weatherlink.com 1.10,2013-06-03 04:30:00,
2013-06-03 00:45:00,54.2,47.0,30.00,North,350,5.0,6.0,77,0.00,,,0.00,weatherlink.com 1.10,2013-06-03 04:45:00,
2013-06-03 01:02:00,53.1,46.0,30.00,NW,323,2.0,7.0,77,0.00,,,0.00,weatherlink.com 1.10,2013-06-03 05:02:00,
2013-06-03 01:17:00,52.1,46.0,30.00,NW,309,2.0,8.0,79,0.00,,,0.00,weatherlink.com 1.10,2013-06-03 05:17:00,
2013-06-03 01:32:00,51.6,46.0,30.00,NW,319,4.0,5.0,80,0.00,,,0.00,weatherlink.com 1.10,2013-06-03 05:32:00,
2013-06-03 01:47:00,50.9,45.0,30.00,WNW,303,3.0,5.0,81,0.00,,,0.00,weatherlink.com 1.10,2013-06-03 05:47:00,
2013-06-03 02:02:00,50.4,45.0,30.00,North,5,1.0,6.0,81,0.00,,,0.00,weatherlink.com 1.10,2013-06-03 06:02:00,
2013-06-03 02:17:00,50.0,45.0,30.00,North,360,0.0,6.0,82,0.00,,,0.00,weatherlink.com 1.10,2013-06-03 06:17:00,
2013-06-03 02:33:00,49.4,45.0,30.00,NW,315,1.0,6.0,84,0.00,,,0.00,weatherlink.com 1.10,2013-06-03 06:33:00,
2013-06-03 02:47:00,49.0,44.0,30.00,NNW,327,1.0,5.0,84,0.00,,,0.00,weatherlink.com 1.10,2013-06-03 06:47:00,
2013-06-03 03:03:00,48.7,44.0,29.99,NW,315,1.0,5.0,84,0.00,,,0.00,weatherlink.com 1.10,2013-06-03 07:03:00,
2013-06-03 03:18:00,48.5,44.0,29.99,NW,315,1.0,4.0,85,0.00,,,0.00,weatherlink.com 1.10,2013-06-03 07:18:00,
2013-06-03 03:33:00,48.2,44.0,30.00,NW,315,1.0,3.0,86,0.00,,,0.00,weatherlink.com 1.10,2013-06-03 07:33:00,
2013-06-03 03:49:00,47.8,44.0,29.99,NW,319,2.0,4.0,87,0.00,,,0.00,weatherlink.com 1.10,2013-06-03 07:49:00,
2013-06-03 04:04:00,47.6,44.0,30.00,North,349,0.0,5.0,87,0.00,,,0.00,weatherlink.com 1.10,2013-06-03 08:04:00,
2013-06-03 04:19:00,47.4,44.0,30.00,North,349,0.0,2.0,88,0.00,,,0.00,weatherlink.com 1.10,2013-06-03 08:19:00,
2013-06-03 04:34:00,46.8,44.0,30.00,North,349,0.0,0.0,89,0.00,,,0.00,weatherlink.com 1.10,2013-06-03 08:34:00,
2013-06-03 04:50:00,46.2,44.0,30.00,North,349,0.0,0.0,90,0.00,,,0.00,weatherlink.com 1.10,2013-06-03 08:50:00,
2013-06-03 05:05:00,46.4,44.0,30.00,North,349,3.0,3.0,92,0.00,,,0.00,weatherlink.com 1.10,2013-06-03 09:05:00,
2013-06-03 05:20:00,47.0,45.0,30.00,NW,325,2.0,4.0,91,0.00,,,0.00,weatherlink.com 1.10,2013-06-03 09:20:00,
2013-06-03 05:35:00,47.6,45.0,30.01,NW,311,1.0,6.0,90,0.00,,,0.00,weatherlink.com 1.10,2013-06-03 09:35:00,
2013-06-03 05:50:00,48.0,45.0,30.01,NW,311,1.0,4.0,90,0.00,,,0.00,weatherlink.com 1.10,2013-06-03 09:50:00,
2013-06-03 06:07:00,48.5,46.0,30.01,NW,320,4.0,5.0,90,0.00,,,0.00,weatherlink.com 1.10,2013-06-03 10:07:00,
2013-06-03 06:22:00,48.7,46.0,30.02,NW,315,2.0,7.0,90,0.00,,,0.00,weatherlink.com 1.10,2013-06-03 10:22:00,
2013-06-03 06:37:00,48.9,46.0,30.02,North,9,3.0,5.0,90,0.00,,,0.00,weatherlink.com 1.10,2013-06-03 10:37:00,
2013-06-03 06:52:00,49.2,47.0,30.02,North,355,1.0,3.0,91,0.00,,,0.00,weatherlink.com 1.10,2013-06-03 10:52:00,
2013-06-03 07:07:00,49.4,47.0,30.02,NNW,346,0.0,4.0,91,0.00,,,0.00,weatherlink.com 1.10,2013-06-03 11:07:00,
2013-06-03 07:22:00,49.9,47.0,30.04,NNE,14,0.0,3.0,91,0.00,,,0.00,weatherlink.com 1.10,2013-06-03 11:22:00,
2013-06-03 07:37:00,50.4,48.0,30.04,NNE,13,3.0,4.0,91,0.00,,,0.00,weatherlink.com 1.10,2013-06-03 11:37:00,
2013-06-03 07:52:00,50.8,48.0,30.04,North,10,1.0,5.0,90,0.00,,,0.00,weatherlink.com 1.10,2013-06-03 11:52:00,
2013-06-03 08:08:00,51.5,49.0,30.05,NNE,21,2.0,6.0,90,0.00,,,0.00,weatherlink.com 1.10,2013-06-03 12:08:00,
2013-06-03 08:24:00,52.1,49.0,30.05,NNE,29,4.0,5.0,90,0.00,,,0.00,weatherlink.com 1.10,2013-06-03 12:24:00,
2013-06-03 08:38:00,52.8,50.0,30.05,NNE,19,4.0,8.0,89,0.00,,,0.00,weatherlink.com 1.10,2013-06-03 12:38:00,
2013-06-03 08:54:00,53.5,49.0,30.05,ENE,63,7.0,9.0,85,0.00,,,0.00,weatherlink.com 1.10,2013-06-03 12:54:00,
2013-06-03 09:09:00,54.2,49.0,30.05,NE,55,4.0,10.0,83,0.00,,,0.00,weatherlink.com 1.10,2013-06-03 13:09:00,
2013-06-03 09:24:00,56.1,49.0,30.06,NNE,24,5.0,10.0,77,0.00,,,0.00,weatherlink.com 1.10,2013-06-03 13:24:00,
2013-06-03 09:40:00,57.0,49.0,30.05,NNE,19,4.0,9.0,75,0.00,,,0.00,weatherlink.com 1.10,2013-06-03 13:40:00,
2013-06-03 09:55:00,57.4,49.0,30.05,North,355,5.0,11.0,73,0.00,,,0.00,weatherlink.com 1.10,2013-06-03 13:55:00,
2013-06-03 10:10:00,57.7,49.0,30.07,NNE,21,3.0,10.0,73,0.00,,,0.00,weatherlink.com 1.10,2013-06-03 14:10:00,
2013-06-03 10:27:00,58.0,47.0,30.07,NNE,19,5.0,9.0,68,0.00,,,0.00,weatherlink.com 1.10,2013-06-03 14:27:00,
2013-06-03 10:42:00,58.8,48.0,30.08,ENE,78,5.0,11.0,68,0.00,,,0.00,weatherlink.com 1.10,2013-06-03 14:42:00,
2013-06-03 10:57:00,59.8,47.0,30.08,East,84,6.0,9.0,62,0.00,,,0.00,weatherlink.com 1.10,2013-06-03 14:57:00,
2013-06-03 11:12:00,60.9,44.0,30.08,NNE,24,7.0,9.0,55,0.00,,,0.00,weatherlink.com 1.10,2013-06-03 15:12:00,
2013-06-03 11:27:00,60.6,41.0,30.08,North,11,7.0,12.0,48,0.00,,,0.00,weatherlink.com 1.10,2013-06-03 15:27:00,
2013-06-03 11:42:00,61.4,41.0,30.08,ENE,58,4.0,13.0,48,0.00,,,0.00,weatherlink.com 1.10,2013-06-03 15:42:00,
2013-06-03 11:57:00,61.7,42.0,30.09,ESE,104,7.0,9.0,48,0.00,,,0.00,weatherlink.com 1.10,2013-06-03 15:57:00,
2013-06-03 12:28:00,62.1,46.0,30.09,ENE,76,3.0,10.0,56,0.00,,,0.00,weatherlink.com 1.10,2013-06-03 16:28:00,
2013-06-03 12:45:00,63.2,43.0,30.08,NE,36,3.0,9.0,48,0.00,,,0.00,weatherlink.com 1.10,2013-06-03 16:45:00,
2013-06-03 12:58:00,63.6,47.0,30.08,NE,37,4.0,9.0,55,0.00,,,0.00,weatherlink.com 1.10,2013-06-03 16:58:00,
2013-06-03 13:13:00,63.8,42.0,30.08,East,79,8.0,10.0,46,0.00,,,0.00,weatherlink.com 1.10,2013-06-03 17:13:00,
2013-06-03 13:30:00,63.3,48.0,30.08,NNE,26,5.0,8.0,57,0.00,,,0.00,weatherlink.com 1.10,2013-06-03 17:30:00,
2013-06-03 13:44:00,64.3,47.0,30.06,East,82,6.0,11.0,53,0.00,,,0.00,weatherlink.com 1.10,2013-06-03 17:44:00,
2013-06-03 14:00:00,64.5,45.0,30.05,NNE,27,7.0,10.0,49,0.00,,,0.00,weatherlink.com 1.10,2013-06-03 18:00:00,
2013-06-03 14:15:00,65.1,45.0,30.05,NNE,19,6.0,9.0,48,0.00,,,0.00,weatherlink.com 1.10,2013-06-03 18:15:00,
2013-06-03 14:30:00,65.2,46.0,30.05,East,91,8.0,9.0,51,0.00,,,0.00,weatherlink.com 1.10,2013-06-03 18:30:00,
2013-06-03 14:45:00,65.4,48.0,30.04,ENE,71,5.0,9.0,53,0.00,,,0.00,weatherlink.com 1.10,2013-06-03 18:45:00,
2013-06-03 15:00:00,65.9,45.0,30.04,NE,39,5.0,10.0,48,0.00,,,0.00,weatherlink.com 1.10,2013-06-03 19:00:00,
2013-06-03 15:17:00,65.8,47.0,30.03,ENE,57,3.0,18.0,51,0.00,,,0.00,weatherlink.com 1.10,2013-06-03 19:17:00,
2013-06-03 15:32:00,66.5,48.0,30.03,ENE,59,5.0,7.0,52,0.00,,,0.00,weatherlink.com 1.10,2013-06-03 19:32:00,
2013-06-03 15:47:00,67.3,45.0,30.03,NNE,15,3.0,10.0,45,0.00,,,0.00,weatherlink.com 1.10,2013-06-03 19:47:00,
2013-06-03 16:02:00,67.1,47.0,30.03,NNE,23,1.0,9.0,49,0.00,,,0.00,weatherlink.com 1.10,2013-06-03 20:02:00,
2013-06-03 16:17:00,67.1,44.0,30.02,NNE,24,2.0,10.0,44,0.00,,,0.00,weatherlink.com 1.10,2013-06-03 20:17:00,
2013-06-03 16:32:00,68.4,47.0,30.02,ENE,68,4.0,8.0,47,0.00,,,0.00,weatherlink.com 1.10,2013-06-03 20:32:00,
2013-06-03 16:48:00,69.7,46.0,30.02,NNE,21,5.0,10.0,43,0.00,,,0.00,weatherlink.com 1.10,2013-06-03 20:48:00,
2013-06-03 17:03:00,69.9,46.0,30.02,ENE,71,3.0,8.0,43,0.00,,,0.00,weatherlink.com 1.10,2013-06-03 21:03:00,
2013-06-03 17:18:00,69.7,48.0,30.02,NE,44,5.0,8.0,47,0.00,,,0.00,weatherlink.com 1.10,2013-06-03 21:18:00,
2013-06-03 17:33:00,69.5,47.0,30.02,North,5,1.0,9.0,44,0.00,,,0.00,weatherlink.com 1.10,2013-06-03 21:33:00,
2013-06-03 17:49:00,69.5,47.0,30.02,NNW,327,3.0,10.0,44,0.00,,,0.00,weatherlink.com 1.10,2013-06-03 21:49:00,
2013-06-03 18:04:00,69.0,46.0,30.02,NE,46,2.0,10.0,44,0.00,,,0.00,weatherlink.com 1.10,2013-06-03 22:04:00,
2013-06-03 18:19:00,69.1,46.0,30.02,NNE,32,5.0,9.0,44,0.00,,,0.00,weatherlink.com 1.10,2013-06-03 22:19:00,
2013-06-03 18:34:00,69.1,46.0,30.02,NNW,333,1.0,8.0,44,0.00,,,0.00,weatherlink.com 1.10,2013-06-03 22:34:00,
2013-06-03 18:50:00,69.3,45.0,30.02,NNE,26,4.0,11.0,42,0.00,,,0.00,weatherlink.com 1.10,2013-06-03 22:50:00,
2013-06-03 19:05:00,68.5,47.0,30.02,NW,315,5.0,9.0,46,0.00,,,0.00,weatherlink.com 1.10,2013-06-03 23:05:00,
2013-06-03 19:20:00,68.8,45.0,30.02,NNW,346,4.0,7.0,43,0.00,,,0.00,weatherlink.com 1.10,2013-06-03 23:20:00,
2013-06-03 19:35:00,69.5,47.0,30.02,NNE,15,4.0,6.0,44,0.00,,,0.00,weatherlink.com 1.10,2013-06-03 23:35:00,
2013-06-03 19:50:00,68.8,46.0,30.03,NNE,26,7.0,7.0,45,0.00,,,0.00,weatherlink.com 1.10,2013-06-03 23:50:00,
2013-06-03 20:07:00,68.3,46.0,30.03,NE,53,4.0,6.0,45,0.00,,,0.00,weatherlink.com 1.10,2013-06-04 00:07:00,
2013-06-03 20:22:00,68.2,47.0,30.04,NNE,17,0.0,5.0,47,0.00,,,0.00,weatherlink.com 1.10,2013-06-04 00:22:00,
2013-06-03 20:37:00,67.3,46.0,30.05,NNE,17,2.0,5.0,47,0.00,,,0.00,weatherlink.com 1.10,2013-06-04 00:37:00,
2013-06-03 20:52:00,65.6,46.0,30.05,NNE,17,1.0,4.0,50,0.00,,,0.00,weatherlink.com 1.10,2013-06-04 00:52:00,
2013-06-03 21:07:00,64.4,47.0,30.05,NNE,17,0.0,2.0,53,0.00,,,0.00,weatherlink.com 1.10,2013-06-04 01:07:00,
2013-06-03 21:22:00,61.8,50.0,30.05,NNE,17,0.0,1.0,66,0.00,,,0.00,weatherlink.com 1.10,2013-06-04 01:22:00,
2013-06-03 21:39:00,58.8,49.0,30.05,NNE,17,0.0,0.0,69,0.00,,,0.00,weatherlink.com 1.10,2013-06-04 01:39:00,
2013-06-03 21:53:00,57.2,49.0,30.05,NNE,17,0.0,0.0,74,0.00,,,0.00,weatherlink.com 1.10,2013-06-04 01:53:00,
2013-06-03 22:08:00,55.9,49.0,30.06,NNE,17,0.0,0.0,78,0.00,,,0.00,weatherlink.com 1.10,2013-06-04 02:08:00,
2013-06-03 22:23:00,55.0,49.0,30.06,NNE,17,0.0,0.0,81,0.00,,,0.00,weatherlink.com 1.10,2013-06-04 02:23:00,
2013-06-03 22:39:00,54.1,49.0,30.07,NNE,17,0.0,0.0,83,0.00,,,0.00,weatherlink.com 1.10,2013-06-04 02:39:00,
2013-06-03 22:54:00,53.9,49.0,30.08,NNE,17,0.0,0.0,84,0.00,,,0.00,weatherlink.com 1.10,2013-06-04 02:54:00,
2013-06-03 23:09:00,53.2,49.0,30.09,NNE,17,0.0,0.0,86,0.00,,,0.00,weatherlink.com 1.10,2013-06-04 03:09:00,
2013-06-03 23:24:00,52.5,49.0,30.09,NNE,17,0.0,0.0,88,0.00,,,0.00,weatherlink.com 1.10,2013-06-04 03:24:00,
2013-06-03 23:40:00,52.1,49.0,30.09,NNE,17,0.0,0.0,89,0.00,,,0.00,weatherlink.com 1.10,2013-06-04 03:40:00,
2013-06-03 23:55:00,51.7,49.0,30.09,NNE,17,0.0,0.0,89,0.00,,,0.00,weatherlink.com 1.10,2013-06-04 03:55:00,